sensor_id;sensor_type;location;lat;lon;timestamp;P1;durP1;ratioP1;P2;durP2;ratioP2
23617;SDS011;18207;32.078;34.818;2023-04-25T00:01:38;2.45;;;2.25;;
23617;SDS011;18207;32.078;34.818;2023-04-25T00:04:08;2.60;;;2.40;;
23617;SDS011;18207;32.078;34.818;2023-04-25T00:06:40;2.55;;;2.35;;
23617;SDS011;18207;32.078;34.818;2023-04-25T00:09:10;2.80;;;2.50;;
23617;SDS011;18207;32.078;34.818;2023-04-25T00:11:40;2.55;;;2.28;;
23617;SDS011;18207;32.078;34.818;2023-04-25T00:14:10;2.45;;;2.28;;
23617;SDS011;18207;32.078;34.818;2023-04-25T00:16:40;2.33;;;2.13;;
23617;SDS011;18207;32.078;34.818;2023-04-25T00:19:11;2.95;;;2.60;;
23617;SDS011;18207;32.078;34.818;2023-04-25T00:21:43;2.72;;;2.53;;
23617;SDS011;18207;32.078;34.818;2023-04-25T00:24:14;3.53;;;2.75;;
23617;SDS011;18207;32.078;34.818;2023-04-25T00:26:44;3.10;;;2.80;;
23617;SDS011;18207;32.078;34.818;2023-04-25T00:29:14;3.30;;;3.00;;
23617;SDS011;18207;32.078;34.818;2023-04-25T00:31:44;2.92;;;2.63;;
23617;SDS011;18207;32.078;34.818;2023-04-25T00:34:14;3.28;;;2.97;;
23617;SDS011;18207;32.078;34.818;2023-04-25T00:36:46;3.25;;;2.95;;
23617;SDS011;18207;32.078;34.818;2023-04-25T00:39:16;2.97;;;2.72;;
23617;SDS011;18207;32.078;34.818;2023-04-25T00:41:46;3.25;;;2.70;;
23617;SDS011;18207;32.078;34.818;2023-04-25T00:44:20;2.80;;;2.60;;
23617;SDS011;18207;32.078;34.818;2023-04-25T00:46:51;3.15;;;2.85;;
23617;SDS011;18207;32.078;34.818;2023-04-25T00:49:22;3.40;;;3.08;;
23617;SDS011;18207;32.078;34.818;2023-04-25T00:51:55;2.90;;;2.63;;
23617;SDS011;18207;32.078;34.818;2023-04-25T00:54:25;2.88;;;2.67;;
23617;SDS011;18207;32.078;34.818;2023-04-25T00:56:55;3.40;;;3.10;;
23617;SDS011;18207;32.078;34.818;2023-04-25T00:59:26;3.17;;;2.90;;
23617;SDS011;18207;32.078;34.818;2023-04-25T01:01:58;3.00;;;2.70;;
23617;SDS011;18207;32.078;34.818;2023-04-25T01:04:29;3.10;;;2.80;;
23617;SDS011;18207;32.078;34.818;2023-04-25T01:07:01;2.85;;;2.65;;
23617;SDS011;18207;32.078;34.818;2023-04-25T01:09:30;3.10;;;2.75;;
23617;SDS011;18207;32.078;34.818;2023-04-25T01:12:01;2.97;;;2.67;;
23617;SDS011;18207;32.078;34.818;2023-04-25T01:14:31;2.70;;;2.50;;
23617;SDS011;18207;32.078;34.818;2023-04-25T01:17:02;3.00;;;2.58;;
23617;SDS011;18207;32.078;34.818;2023-04-25T01:19:34;3.20;;;2.90;;
23617;SDS011;18207;32.078;34.818;2023-04-25T01:22:05;2.67;;;2.45;;
23617;SDS011;18207;32.078;34.818;2023-04-25T01:24:37;3.88;;;2.60;;
23617;SDS011;18207;32.078;34.818;2023-04-25T01:27:07;2.90;;;2.58;;
23617;SDS011;18207;32.078;34.818;2023-04-25T01:29:38;2.97;;;2.40;;
23617;SDS011;18207;32.078;34.818;2023-04-25T01:32:09;2.85;;;2.42;;
23617;SDS011;18207;32.078;34.818;2023-04-25T01:34:40;4.00;;;2.30;;
23617;SDS011;18207;32.078;34.818;2023-04-25T01:37:12;2.80;;;2.60;;
23617;SDS011;18207;32.078;34.818;2023-04-25T01:39:42;2.78;;;2.58;;
23617;SDS011;18207;32.078;34.818;2023-04-25T01:42:13;3.28;;;2.80;;
23617;SDS011;18207;32.078;34.818;2023-04-25T01:44:42;2.55;;;2.35;;
23617;SDS011;18207;32.078;34.818;2023-04-25T01:47:13;2.97;;;2.72;;
23617;SDS011;18207;32.078;34.818;2023-04-25T01:49:42;2.92;;;2.65;;
23617;SDS011;18207;32.078;34.818;2023-04-25T01:52:13;2.80;;;2.60;;
23617;SDS011;18207;32.078;34.818;2023-04-25T01:54:43;2.85;;;2.50;;
23617;SDS011;18207;32.078;34.818;2023-04-25T01:57:14;2.70;;;2.50;;
23617;SDS011;18207;32.078;34.818;2023-04-25T01:59:44;3.05;;;2.75;;
23617;SDS011;18207;32.078;34.818;2023-04-25T02:02:15;2.60;;;2.40;;
23617;SDS011;18207;32.078;34.818;2023-04-25T02:04:45;2.88;;;2.65;;
23617;SDS011;18207;32.078;34.818;2023-04-25T02:07:17;2.65;;;2.40;;
23617;SDS011;18207;32.078;34.818;2023-04-25T02:09:47;2.92;;;2.63;;
23617;SDS011;18207;32.078;34.818;2023-04-25T02:12:17;2.90;;;2.55;;
23617;SDS011;18207;32.078;34.818;2023-04-25T02:14:47;2.83;;;2.63;;
23617;SDS011;18207;32.078;34.818;2023-04-25T02:17:19;2.63;;;2.42;;
23617;SDS011;18207;32.078;34.818;2023-04-25T02:19:49;2.55;;;2.35;;
23617;SDS011;18207;32.078;34.818;2023-04-25T02:22:22;2.70;;;2.50;;
23617;SDS011;18207;32.078;34.818;2023-04-25T02:24:53;2.83;;;2.53;;
23617;SDS011;18207;32.078;34.818;2023-04-25T02:27:23;2.95;;;2.53;;
23617;SDS011;18207;32.078;34.818;2023-04-25T02:29:53;2.50;;;2.20;;
23617;SDS011;18207;32.078;34.818;2023-04-25T02:32:23;2.63;;;2.42;;
23617;SDS011;18207;32.078;34.818;2023-04-25T02:34:53;2.58;;;2.38;;
23617;SDS011;18207;32.078;34.818;2023-04-25T02:37:27;2.53;;;2.33;;
23617;SDS011;18207;32.078;34.818;2023-04-25T02:39:57;2.97;;;2.60;;
23617;SDS011;18207;32.078;34.818;2023-04-25T02:42:27;2.42;;;2.20;;
23617;SDS011;18207;32.078;34.818;2023-04-25T02:44:58;2.83;;;2.40;;
23617;SDS011;18207;32.078;34.818;2023-04-25T02:47:28;2.70;;;2.50;;
23617;SDS011;18207;32.078;34.818;2023-04-25T02:49:58;3.25;;;2.28;;
23617;SDS011;18207;32.078;34.818;2023-04-25T02:52:30;2.58;;;2.10;;
23617;SDS011;18207;32.078;34.818;2023-04-25T02:55:00;2.47;;;2.28;;
23617;SDS011;18207;32.078;34.818;2023-04-25T02:57:30;2.45;;;2.25;;
23617;SDS011;18207;32.078;34.818;2023-04-25T03:00:00;2.55;;;2.05;;
23617;SDS011;18207;32.078;34.818;2023-04-25T03:02:31;2.03;;;1.92;;
23617;SDS011;18207;32.078;34.818;2023-04-25T03:05:01;2.30;;;2.10;;
23617;SDS011;18207;32.078;34.818;2023-04-25T03:07:33;2.83;;;2.20;;
23617;SDS011;18207;32.078;34.818;2023-04-25T03:10:04;2.47;;;2.13;;
23617;SDS011;18207;32.078;34.818;2023-04-25T03:12:35;2.10;;;1.90;;
23617;SDS011;18207;32.078;34.818;2023-04-25T03:15:06;2.35;;;2.08;;
23617;SDS011;18207;32.078;34.818;2023-04-25T03:17:36;2.38;;;2.17;;
23617;SDS011;18207;32.078;34.818;2023-04-25T03:20:07;2.08;;;1.88;;
23617;SDS011;18207;32.078;34.818;2023-04-25T03:22:40;2.10;;;1.88;;
23617;SDS011;18207;32.078;34.818;2023-04-25T03:25:11;1.90;;;1.73;;
23617;SDS011;18207;32.078;34.818;2023-04-25T03:27:41;3.45;;;1.85;;
23617;SDS011;18207;32.078;34.818;2023-04-25T03:30:11;1.80;;;1.70;;
23617;SDS011;18207;32.078;34.818;2023-04-25T03:32:41;2.28;;;1.80;;
23617;SDS011;18207;32.078;34.818;2023-04-25T03:35:12;1.95;;;1.60;;
23617;SDS011;18207;32.078;34.818;2023-04-25T03:37:43;1.95;;;1.85;;
23617;SDS011;18207;32.078;34.818;2023-04-25T03:40:14;2.15;;;1.80;;
23617;SDS011;18207;32.078;34.818;2023-04-25T03:42:44;2.00;;;1.80;;
23617;SDS011;18207;32.078;34.818;2023-04-25T03:45:14;2.03;;;1.88;;
23617;SDS011;18207;32.078;34.818;2023-04-25T03:47:45;2.83;;;1.83;;
23617;SDS011;18207;32.078;34.818;2023-04-25T03:50:15;1.98;;;1.77;;
23617;SDS011;18207;32.078;34.818;2023-04-25T03:52:47;2.35;;;1.92;;
23617;SDS011;18207;32.078;34.818;2023-04-25T03:55:16;3.08;;;1.90;;
23617;SDS011;18207;32.078;34.818;2023-04-25T03:57:47;1.90;;;1.77;;
23617;SDS011;18207;32.078;34.818;2023-04-25T04:00:16;2.70;;;2.10;;
23617;SDS011;18207;32.078;34.818;2023-04-25T04:02:47;2.00;;;1.70;;
23617;SDS011;18207;32.078;34.818;2023-04-25T04:05:17;2.00;;;1.90;;
23617;SDS011;18207;32.078;34.818;2023-04-25T04:07:49;2.63;;;1.83;;
23617;SDS011;18207;32.078;34.818;2023-04-25T04:10:19;2.72;;;1.77;;
23617;SDS011;18207;32.078;34.818;2023-04-25T04:12:50;1.95;;;1.65;;
23617;SDS011;18207;32.078;34.818;2023-04-25T04:15:20;1.77;;;1.67;;
23617;SDS011;18207;32.078;34.818;2023-04-25T04:17:50;2.00;;;1.70;;
23617;SDS011;18207;32.078;34.818;2023-04-25T04:20:21;1.60;;;1.50;;
23617;SDS011;18207;32.078;34.818;2023-04-25T04:22:53;1.65;;;1.55;;
23617;SDS011;18207;32.078;34.818;2023-04-25T04:25:23;2.53;;;1.90;;
23617;SDS011;18207;32.078;34.818;2023-04-25T04:27:53;1.75;;;1.65;;
23617;SDS011;18207;32.078;34.818;2023-04-25T04:30:24;2.80;;;1.88;;
23617;SDS011;18207;32.078;34.818;2023-04-25T04:32:56;3.08;;;1.88;;
23617;SDS011;18207;32.078;34.818;2023-04-25T04:35:27;2.17;;;1.65;;
23617;SDS011;18207;32.078;34.818;2023-04-25T04:38:00;1.80;;;1.70;;
23617;SDS011;18207;32.078;34.818;2023-04-25T04:40:30;2.15;;;1.80;;
23617;SDS011;18207;32.078;34.818;2023-04-25T04:42:59;1.60;;;1.50;;
23617;SDS011;18207;32.078;34.818;2023-04-25T04:45:30;1.75;;;1.55;;
23617;SDS011;18207;32.078;34.818;2023-04-25T04:48:00;1.85;;;1.63;;
23617;SDS011;18207;32.078;34.818;2023-04-25T04:50:34;2.03;;;1.77;;
23617;SDS011;18207;32.078;34.818;2023-04-25T04:53:07;1.58;;;1.30;;
23617;SDS011;18207;32.078;34.818;2023-04-25T04:55:37;1.90;;;1.70;;
23617;SDS011;18207;32.078;34.818;2023-04-25T04:58:08;1.75;;;1.65;;
23617;SDS011;18207;32.078;34.818;2023-04-25T05:00:38;1.73;;;1.60;;
23617;SDS011;18207;32.078;34.818;2023-04-25T05:03:08;1.75;;;1.52;;
23617;SDS011;18207;32.078;34.818;2023-04-25T05:05:39;1.70;;;1.60;;
23617;SDS011;18207;32.078;34.818;2023-04-25T05:08:12;1.70;;;1.48;;
23617;SDS011;18207;32.078;34.818;2023-04-25T05:10:42;2.28;;;1.70;;
23617;SDS011;18207;32.078;34.818;2023-04-25T05:13:12;2.22;;;1.70;;
23617;SDS011;18207;32.078;34.818;2023-04-25T05:15:43;1.60;;;1.50;;
23617;SDS011;18207;32.078;34.818;2023-04-25T05:18:13;1.80;;;1.40;;
23617;SDS011;18207;32.078;34.818;2023-04-25T05:20:43;1.70;;;1.40;;
23617;SDS011;18207;32.078;34.818;2023-04-25T05:23:16;1.40;;;1.30;;
23617;SDS011;18207;32.078;34.818;2023-04-25T05:25:46;1.23;;;1.13;;
23617;SDS011;18207;32.078;34.818;2023-04-25T05:28:16;1.30;;;1.20;;
23617;SDS011;18207;32.078;34.818;2023-04-25T05:30:47;1.75;;;1.30;;
23617;SDS011;18207;32.078;34.818;2023-04-25T05:33:18;1.48;;;1.38;;
23617;SDS011;18207;32.078;34.818;2023-04-25T05:35:48;1.58;;;1.48;;
23617;SDS011;18207;32.078;34.818;2023-04-25T05:38:20;1.67;;;1.50;;
23617;SDS011;18207;32.078;34.818;2023-04-25T05:40:50;1.50;;;1.40;;
23617;SDS011;18207;32.078;34.818;2023-04-25T05:43:20;1.77;;;1.65;;
23617;SDS011;18207;32.078;34.818;2023-04-25T05:45:50;1.75;;;1.45;;
23617;SDS011;18207;32.078;34.818;2023-04-25T05:48:20;1.40;;;1.30;;
23617;SDS011;18207;32.078;34.818;2023-04-25T05:50:50;1.70;;;1.40;;
23617;SDS011;18207;32.078;34.818;2023-04-25T05:53:22;2.28;;;1.38;;
23617;SDS011;18207;32.078;34.818;2023-04-25T05:55:52;2.05;;;1.45;;
23617;SDS011;18207;32.078;34.818;2023-04-25T05:58:21;1.92;;;1.40;;
23617;SDS011;18207;32.078;34.818;2023-04-25T06:00:52;1.50;;;1.38;;
23617;SDS011;18207;32.078;34.818;2023-04-25T06:03:22;1.33;;;1.23;;
23617;SDS011;18207;32.078;34.818;2023-04-25T06:05:52;1.52;;;1.27;;
23617;SDS011;18207;32.078;34.818;2023-04-25T06:08:25;1.42;;;1.33;;
23617;SDS011;18207;32.078;34.818;2023-04-25T06:10:54;1.65;;;1.40;;
23617;SDS011;18207;32.078;34.818;2023-04-25T06:13:25;2.70;;;1.23;;
23617;SDS011;18207;32.078;34.818;2023-04-25T06:15:55;1.33;;;1.23;;
23617;SDS011;18207;32.078;34.818;2023-04-25T06:18:25;1.50;;;1.15;;
23617;SDS011;18207;32.078;34.818;2023-04-25T06:20:56;1.50;;;1.40;;
23617;SDS011;18207;32.078;34.818;2023-04-25T06:23:28;2.17;;;1.33;;
23617;SDS011;18207;32.078;34.818;2023-04-25T06:25:58;1.40;;;1.30;;
23617;SDS011;18207;32.078;34.818;2023-04-25T06:28:28;1.50;;;1.38;;
23617;SDS011;18207;32.078;34.818;2023-04-25T06:30:58;1.40;;;1.30;;
23617;SDS011;18207;32.078;34.818;2023-04-25T06:33:29;1.40;;;1.30;;
23617;SDS011;18207;32.078;34.818;2023-04-25T06:36:00;1.25;;;1.15;;
23617;SDS011;18207;32.078;34.818;2023-04-25T06:38:32;1.20;;;1.10;;
23617;SDS011;18207;32.078;34.818;2023-04-25T06:41:09;1.75;;;1.30;;
23617;SDS011;18207;32.078;34.818;2023-04-25T06:43:39;1.40;;;1.30;;
23617;SDS011;18207;32.078;34.818;2023-04-25T06:46:09;2.17;;;1.63;;
23617;SDS011;18207;32.078;34.818;2023-04-25T06:48:40;1.60;;;1.50;;
23617;SDS011;18207;32.078;34.818;2023-04-25T06:51:10;1.50;;;1.40;;
23617;SDS011;18207;32.078;34.818;2023-04-25T06:53:42;2.08;;;1.40;;
23617;SDS011;18207;32.078;34.818;2023-04-25T06:56:12;1.40;;;1.30;;
23617;SDS011;18207;32.078;34.818;2023-04-25T06:58:42;1.00;;;1.00;;
23617;SDS011;18207;32.078;34.818;2023-04-25T07:01:13;1.15;;;1.05;;
23617;SDS011;18207;32.078;34.818;2023-04-25T07:03:43;2.10;;;1.30;;
23617;SDS011;18207;32.078;34.818;2023-04-25T07:06:13;1.08;;;1.08;;
23617;SDS011;18207;32.078;34.818;2023-04-25T07:08:45;1.20;;;1.10;;
23617;SDS011;18207;32.078;34.818;2023-04-25T07:11:15;1.98;;;1.50;;
23617;SDS011;18207;32.078;34.818;2023-04-25T07:13:45;1.20;;;1.10;;
23617;SDS011;18207;32.078;34.818;2023-04-25T07:16:15;1.60;;;1.50;;
23617;SDS011;18207;32.078;34.818;2023-04-25T07:18:45;1.38;;;1.27;;
23617;SDS011;18207;32.078;34.818;2023-04-25T07:21:16;1.20;;;1.10;;
23617;SDS011;18207;32.078;34.818;2023-04-25T07:23:48;1.30;;;1.20;;
23617;SDS011;18207;32.078;34.818;2023-04-25T07:26:18;1.30;;;1.20;;
23617;SDS011;18207;32.078;34.818;2023-04-25T07:28:48;1.25;;;1.15;;
23617;SDS011;18207;32.078;34.818;2023-04-25T07:31:18;1.83;;;1.40;;
23617;SDS011;18207;32.078;34.818;2023-04-25T07:33:48;1.17;;;1.08;;
23617;SDS011;18207;32.078;34.818;2023-04-25T07:36:19;1.63;;;1.40;;
23617;SDS011;18207;32.078;34.818;2023-04-25T07:38:50;2.03;;;1.42;;
23617;SDS011;18207;32.078;34.818;2023-04-25T07:41:20;1.17;;;1.08;;
23617;SDS011;18207;32.078;34.818;2023-04-25T07:43:50;2.42;;;1.00;;
23617;SDS011;18207;32.078;34.818;2023-04-25T07:46:20;1.20;;;1.10;;
23617;SDS011;18207;32.078;34.818;2023-04-25T07:48:50;1.23;;;1.10;;
23617;SDS011;18207;32.078;34.818;2023-04-25T07:51:20;1.05;;;1.00;;
23617;SDS011;18207;32.078;34.818;2023-04-25T07:53:52;0.90;;;0.90;;
23617;SDS011;18207;32.078;34.818;2023-04-25T07:56:22;1.00;;;0.90;;
23617;SDS011;18207;32.078;34.818;2023-04-25T07:58:52;1.15;;;1.05;;
23617;SDS011;18207;32.078;34.818;2023-04-25T08:01:23;1.10;;;1.00;;
23617;SDS011;18207;32.078;34.818;2023-04-25T08:03:52;0.93;;;0.93;;
23617;SDS011;18207;32.078;34.818;2023-04-25T08:06:23;1.73;;;1.08;;
23617;SDS011;18207;32.078;34.818;2023-04-25T08:08:55;1.00;;;1.00;;
23617;SDS011;18207;32.078;34.818;2023-04-25T08:11:25;1.40;;;1.00;;
23617;SDS011;18207;32.078;34.818;2023-04-25T08:13:55;0.80;;;0.80;;
23617;SDS011;18207;32.078;34.818;2023-04-25T08:16:24;1.25;;;1.08;;
23617;SDS011;18207;32.078;34.818;2023-04-25T08:18:55;0.82;;;0.82;;
23617;SDS011;18207;32.078;34.818;2023-04-25T08:21:24;0.85;;;0.85;;
23617;SDS011;18207;32.078;34.818;2023-04-25T08:23:56;1.52;;;0.95;;
23617;SDS011;18207;32.078;34.818;2023-04-25T08:26:28;1.00;;;0.90;;
23617;SDS011;18207;32.078;34.818;2023-04-25T08:28:58;0.70;;;0.70;;
23617;SDS011;18207;32.078;34.818;2023-04-25T08:31:29;1.30;;;1.23;;
23617;SDS011;18207;32.078;34.818;2023-04-25T08:33:59;1.27;;;1.00;;
23617;SDS011;18207;32.078;34.818;2023-04-25T08:36:30;1.10;;;1.10;;
23617;SDS011;18207;32.078;34.818;2023-04-25T08:39:06;1.42;;;0.88;;
23617;SDS011;18207;32.078;34.818;2023-04-25T08:41:37;0.85;;;0.85;;
23617;SDS011;18207;32.078;34.818;2023-04-25T08:44:08;1.20;;;1.10;;
23617;SDS011;18207;32.078;34.818;2023-04-25T08:46:41;0.90;;;0.90;;
23617;SDS011;18207;32.078;34.818;2023-04-25T08:49:16;1.00;;;1.00;;
23617;SDS011;18207;32.078;34.818;2023-04-25T08:51:46;0.98;;;0.98;;
23617;SDS011;18207;32.078;34.818;2023-04-25T08:54:20;1.10;;;1.10;;
23617;SDS011;18207;32.078;34.818;2023-04-25T08:57:01;1.42;;;0.95;;
23617;SDS011;18207;32.078;34.818;2023-04-25T08:59:32;1.25;;;1.15;;
23617;SDS011;18207;32.078;34.818;2023-04-25T09:02:04;1.27;;;1.17;;
23617;SDS011;18207;32.078;34.818;2023-04-25T09:04:36;1.10;;;1.10;;
23617;SDS011;18207;32.078;34.818;2023-04-25T09:07:06;1.15;;;1.05;;
23617;SDS011;18207;32.078;34.818;2023-04-25T09:09:38;1.08;;;1.08;;
23617;SDS011;18207;32.078;34.818;2023-04-25T09:12:09;1.50;;;1.00;;
23617;SDS011;18207;32.078;34.818;2023-04-25T09:14:39;0.90;;;0.90;;
23617;SDS011;18207;32.078;34.818;2023-04-25T09:17:10;1.10;;;1.00;;
23617;SDS011;18207;32.078;34.818;2023-04-25T09:19:41;1.08;;;0.98;;
23617;SDS011;18207;32.078;34.818;2023-04-25T09:22:12;1.73;;;1.23;;
23617;SDS011;18207;32.078;34.818;2023-04-25T09:24:44;1.05;;;1.05;;
23617;SDS011;18207;32.078;34.818;2023-04-25T09:27:18;1.27;;;1.17;;
23617;SDS011;18207;32.078;34.818;2023-04-25T09:29:56;1.00;;;0.85;;
23617;SDS011;18207;32.078;34.818;2023-04-25T09:32:28;1.50;;;1.00;;
23617;SDS011;18207;32.078;34.818;2023-04-25T09:34:58;1.10;;;1.10;;
23617;SDS011;18207;32.078;34.818;2023-04-25T09:37:30;0.95;;;0.93;;
23617;SDS011;18207;32.078;34.818;2023-04-25T09:40:04;1.15;;;1.05;;
23617;SDS011;18207;32.078;34.818;2023-04-25T09:42:40;1.05;;;1.02;;
23617;SDS011;18207;32.078;34.818;2023-04-25T09:45:12;1.02;;;1.02;;
23617;SDS011;18207;32.078;34.818;2023-04-25T09:47:43;0.68;;;0.68;;
23617;SDS011;18207;32.078;34.818;2023-04-25T09:50:14;1.02;;;1.02;;
23617;SDS011;18207;32.078;34.818;2023-04-25T09:52:46;1.35;;;0.95;;
23617;SDS011;18207;32.078;34.818;2023-04-25T09:55:35;0.85;;;0.85;;
23617;SDS011;18207;32.078;34.818;2023-04-25T09:58:08;0.93;;;0.93;;
23617;SDS011;18207;32.078;34.818;2023-04-25T10:00:41;1.30;;;1.20;;
23617;SDS011;18207;32.078;34.818;2023-04-25T10:03:11;1.27;;;0.98;;
23617;SDS011;18207;32.078;34.818;2023-04-25T10:05:43;0.80;;;0.80;;
23617;SDS011;18207;32.078;34.818;2023-04-25T10:08:15;1.27;;;1.17;;
23617;SDS011;18207;32.078;34.818;2023-04-25T10:10:49;0.95;;;0.95;;
23617;SDS011;18207;32.078;34.818;2023-04-25T10:13:19;1.05;;;1.02;;
23617;SDS011;18207;32.078;34.818;2023-04-25T10:15:49;1.15;;;1.05;;
23617;SDS011;18207;32.078;34.818;2023-04-25T10:18:22;1.20;;;1.10;;
23617;SDS011;18207;32.078;34.818;2023-04-25T10:20:53;1.20;;;1.10;;
23617;SDS011;18207;32.078;34.818;2023-04-25T10:23:24;1.38;;;1.27;;
23617;SDS011;18207;32.078;34.818;2023-04-25T10:25:57;1.20;;;1.10;;
23617;SDS011;18207;32.078;34.818;2023-04-25T10:28:29;1.00;;;1.00;;
23617;SDS011;18207;32.078;34.818;2023-04-25T10:31:25;1.27;;;1.17;;
23617;SDS011;18207;32.078;34.818;2023-04-25T10:33:56;1.17;;;1.13;;
23617;SDS011;18207;32.078;34.818;2023-04-25T10:36:31;1.40;;;1.30;;
23617;SDS011;18207;32.078;34.818;2023-04-25T10:39:04;1.20;;;1.05;;
23617;SDS011;18207;32.078;34.818;2023-04-25T10:41:47;1.08;;;1.02;;
23617;SDS011;18207;32.078;34.818;2023-04-25T10:44:22;0.95;;;0.70;;
23617;SDS011;18207;32.078;34.818;2023-04-25T10:46:57;0.75;;;0.75;;
23617;SDS011;18207;32.078;34.818;2023-04-25T10:49:30;0.90;;;0.90;;
23617;SDS011;18207;32.078;34.818;2023-04-25T10:52:13;1.13;;;0.82;;
23617;SDS011;18207;32.078;34.818;2023-04-25T10:54:54;1.00;;;0.70;;
23617;SDS011;18207;32.078;34.818;2023-04-25T10:57:28;1.02;;;0.95;;
23617;SDS011;18207;32.078;34.818;2023-04-25T11:00:01;0.70;;;0.70;;
23617;SDS011;18207;32.078;34.818;2023-04-25T11:02:41;0.73;;;0.73;;
23617;SDS011;18207;32.078;34.818;2023-04-25T11:05:22;0.57;;;0.57;;
23617;SDS011;18207;32.078;34.818;2023-04-25T11:08:12;0.93;;;0.90;;
23617;SDS011;18207;32.078;34.818;2023-04-25T11:10:54;0.75;;;0.75;;
23617;SDS011;18207;32.078;34.818;2023-04-25T11:13:30;0.70;;;0.70;;
23617;SDS011;18207;32.078;34.818;2023-04-25T11:16:00;0.80;;;0.57;;
23617;SDS011;18207;32.078;34.818;2023-04-25T11:18:40;0.60;;;0.60;;
23617;SDS011;18207;32.078;34.818;2023-04-25T11:21:11;0.90;;;0.77;;
23617;SDS011;18207;32.078;34.818;2023-04-25T11:23:44;0.85;;;0.80;;
23617;SDS011;18207;32.078;34.818;2023-04-25T11:26:15;0.77;;;0.77;;
23617;SDS011;18207;32.078;34.818;2023-04-25T11:28:48;0.60;;;0.60;;
23617;SDS011;18207;32.078;34.818;2023-04-25T11:31:20;0.77;;;0.77;;
23617;SDS011;18207;32.078;34.818;2023-04-25T11:33:50;0.80;;;0.80;;
23617;SDS011;18207;32.078;34.818;2023-04-25T11:36:22;0.70;;;0.70;;
23617;SDS011;18207;32.078;34.818;2023-04-25T11:38:53;0.73;;;0.73;;
23617;SDS011;18207;32.078;34.818;2023-04-25T11:41:24;0.60;;;0.60;;
23617;SDS011;18207;32.078;34.818;2023-04-25T11:43:57;0.70;;;0.70;;
23617;SDS011;18207;32.078;34.818;2023-04-25T11:46:26;1.70;;;0.80;;
23617;SDS011;18207;32.078;34.818;2023-04-25T11:48:57;1.58;;;0.55;;
23617;SDS011;18207;32.078;34.818;2023-04-25T11:51:28;1.02;;;0.65;;
23617;SDS011;18207;32.078;34.818;2023-04-25T11:53:58;0.63;;;0.63;;
23617;SDS011;18207;32.078;34.818;2023-04-25T11:56:29;0.45;;;0.45;;
23617;SDS011;18207;32.078;34.818;2023-04-25T11:59:02;0.70;;;0.70;;
23617;SDS011;18207;32.078;34.818;2023-04-25T12:01:36;0.60;;;0.57;;
23617;SDS011;18207;32.078;34.818;2023-04-25T12:04:11;1.13;;;0.90;;
23617;SDS011;18207;32.078;34.818;2023-04-25T12:06:43;0.90;;;0.68;;
23617;SDS011;18207;32.078;34.818;2023-04-25T12:09:17;0.55;;;0.55;;
23617;SDS011;18207;32.078;34.818;2023-04-25T12:11:52;0.55;;;0.55;;
23617;SDS011;18207;32.078;34.818;2023-04-25T12:14:27;0.77;;;0.65;;
23617;SDS011;18207;32.078;34.818;2023-04-25T12:17:00;0.73;;;0.73;;
23617;SDS011;18207;32.078;34.818;2023-04-25T12:19:36;0.38;;;0.38;;
23617;SDS011;18207;32.078;34.818;2023-04-25T12:22:20;0.60;;;0.60;;
23617;SDS011;18207;32.078;34.818;2023-04-25T12:24:52;0.80;;;0.80;;
23617;SDS011;18207;32.078;34.818;2023-04-25T12:27:25;0.73;;;0.60;;
23617;SDS011;18207;32.078;34.818;2023-04-25T12:29:58;0.57;;;0.57;;
23617;SDS011;18207;32.078;34.818;2023-04-25T12:32:28;0.80;;;0.80;;
23617;SDS011;18207;32.078;34.818;2023-04-25T12:34:59;0.85;;;0.75;;
23617;SDS011;18207;32.078;34.818;2023-04-25T12:37:29;0.90;;;0.90;;
23617;SDS011;18207;32.078;34.818;2023-04-25T12:39:59;1.00;;;0.85;;
23617;SDS011;18207;32.078;34.818;2023-04-25T12:42:31;1.00;;;0.65;;
23617;SDS011;18207;32.078;34.818;2023-04-25T12:45:03;0.70;;;0.70;;
23617;SDS011;18207;32.078;34.818;2023-04-25T12:47:35;0.95;;;0.80;;
23617;SDS011;18207;32.078;34.818;2023-04-25T12:50:05;0.80;;;0.80;;
23617;SDS011;18207;32.078;34.818;2023-04-25T12:52:36;0.88;;;0.70;;
23617;SDS011;18207;32.078;34.818;2023-04-25T12:55:06;0.82;;;0.82;;
23617;SDS011;18207;32.078;34.818;2023-04-25T12:57:37;0.60;;;0.60;;
23617;SDS011;18207;32.078;34.818;2023-04-25T13:00:10;0.80;;;0.80;;
23617;SDS011;18207;32.078;34.818;2023-04-25T13:02:44;0.80;;;0.80;;
23617;SDS011;18207;32.078;34.818;2023-04-25T13:05:15;0.95;;;0.82;;
23617;SDS011;18207;32.078;34.818;2023-04-25T13:07:45;0.80;;;0.80;;
23617;SDS011;18207;32.078;34.818;2023-04-25T13:10:15;1.00;;;0.70;;
23617;SDS011;18207;32.078;34.818;2023-04-25T13:12:45;0.80;;;0.80;;
23617;SDS011;18207;32.078;34.818;2023-04-25T13:15:18;0.70;;;0.70;;
23617;SDS011;18207;32.078;34.818;2023-04-25T13:17:48;0.88;;;0.88;;
23617;SDS011;18207;32.078;34.818;2023-04-25T13:20:18;0.95;;;0.90;;
23617;SDS011;18207;32.078;34.818;2023-04-25T13:22:50;0.90;;;0.80;;
23617;SDS011;18207;32.078;34.818;2023-04-25T13:25:20;0.77;;;0.77;;
23617;SDS011;18207;32.078;34.818;2023-04-25T13:27:51;0.88;;;0.88;;
23617;SDS011;18207;32.078;34.818;2023-04-25T13:30:22;0.73;;;0.73;;
23617;SDS011;18207;32.078;34.818;2023-04-25T13:32:53;0.80;;;0.80;;
23617;SDS011;18207;32.078;34.818;2023-04-25T13:35:30;0.70;;;0.70;;
23617;SDS011;18207;32.078;34.818;2023-04-25T13:38:01;0.85;;;0.85;;
23617;SDS011;18207;32.078;34.818;2023-04-25T13:40:32;1.00;;;1.00;;
23617;SDS011;18207;32.078;34.818;2023-04-25T13:43:02;0.75;;;0.75;;
23617;SDS011;18207;32.078;34.818;2023-04-25T13:45:35;1.20;;;1.10;;
23617;SDS011;18207;32.078;34.818;2023-04-25T13:48:05;1.17;;;1.08;;
23617;SDS011;18207;32.078;34.818;2023-04-25T13:50:35;0.70;;;0.70;;
23617;SDS011;18207;32.078;34.818;2023-04-25T13:53:05;0.63;;;0.63;;
23617;SDS011;18207;32.078;34.818;2023-04-25T13:55:36;0.80;;;0.80;;
23617;SDS011;18207;32.078;34.818;2023-04-25T13:58:06;0.77;;;0.77;;
23617;SDS011;18207;32.078;34.818;2023-04-25T14:00:38;1.02;;;1.00;;
23617;SDS011;18207;32.078;34.818;2023-04-25T14:03:12;0.90;;;0.90;;
23617;SDS011;18207;32.078;34.818;2023-04-25T14:05:43;0.70;;;0.70;;
23617;SDS011;18207;32.078;34.818;2023-04-25T14:08:13;0.77;;;0.77;;
23617;SDS011;18207;32.078;34.818;2023-04-25T14:10:43;0.55;;;0.55;;
23617;SDS011;18207;32.078;34.818;2023-04-25T14:13:14;1.02;;;0.98;;
23617;SDS011;18207;32.078;34.818;2023-04-25T14:15:45;0.98;;;0.90;;
23617;SDS011;18207;32.078;34.818;2023-04-25T14:18:17;0.70;;;0.70;;
23617;SDS011;18207;32.078;34.818;2023-04-25T14:20:47;0.77;;;0.77;;
23617;SDS011;18207;32.078;34.818;2023-04-25T14:23:18;0.70;;;0.70;;
23617;SDS011;18207;32.078;34.818;2023-04-25T14:25:48;0.77;;;0.77;;
23617;SDS011;18207;32.078;34.818;2023-04-25T14:28:18;0.80;;;0.80;;
23617;SDS011;18207;32.078;34.818;2023-04-25T14:30:51;0.70;;;0.70;;
23617;SDS011;18207;32.078;34.818;2023-04-25T14:33:21;0.93;;;0.93;;
23617;SDS011;18207;32.078;34.818;2023-04-25T14:35:52;1.00;;;0.95;;
23617;SDS011;18207;32.078;34.818;2023-04-25T14:38:22;1.00;;;1.00;;
23617;SDS011;18207;32.078;34.818;2023-04-25T14:40:53;0.90;;;0.90;;
23617;SDS011;18207;32.078;34.818;2023-04-25T14:43:24;1.00;;;0.90;;
23617;SDS011;18207;32.078;34.818;2023-04-25T14:45:56;1.05;;;1.00;;
23617;SDS011;18207;32.078;34.818;2023-04-25T14:48:26;0.80;;;0.80;;
23617;SDS011;18207;32.078;34.818;2023-04-25T14:50:57;1.10;;;1.02;;
23617;SDS011;18207;32.078;34.818;2023-04-25T14:53:28;1.17;;;1.10;;
23617;SDS011;18207;32.078;34.818;2023-04-25T14:55:59;0.85;;;0.70;;
23617;SDS011;18207;32.078;34.818;2023-04-25T14:58:30;1.10;;;1.10;;